Time;durP1;ratioP1;P1;durP2;ratioP2;P2;SDS_P1;SDS_P2;PMS_P1;PMS_P2;Temp;Humidity;BMP_temperature;BMP_pressure;BME280_temperature;BME280_humidity;BME280_pressure;Samples;Min_cycle;Max_cycle;Signal;HPM_P1;HPM_P2
2023/11/13 00:00:02;;;;;;;2.55;2.00;;;10.30;99.90;;;;;;5054466;28;20031;-42
2023/11/13 00:02:27;;;;;;;2.55;2.00;;;10.30;99.90;;;;;;5054791;28;20490;-38
2023/11/13 00:04:53;;;;;;;2.40;2.00;;;10.30;99.90;;;;;;5054700;28;20075;-37
2023/11/13 00:07:19;;;;;;;2.67;2.08;;;10.30;99.90;;;;;;5054524;28;20024;-38
2023/11/13 00:09:44;;;;;;;3.13;2.15;;;10.30;99.90;;;;;;5054923;28;20074;-39
2023/11/13 00:12:10;;;;;;;3.10;2.30;;;10.30;99.90;;;;;;5054443;28;20382;-38
2023/11/13 00:14:36;;;;;;;2.53;2.10;;;10.30;99.90;;;;;;5054472;28;20017;-39
2023/11/13 00:17:01;;;;;;;3.85;2.50;;;10.30;99.90;;;;;;5054349;28;20025;-38
2023/11/13 00:19:27;;;;;;;2.50;1.90;;;10.30;99.90;;;;;;5054453;28;20433;-38
2023/11/13 00:21:53;;;;;;;2.80;2.00;;;10.30;99.90;;;;;;5054351;28;20557;-38
2023/11/13 00:24:19;;;;;;;2.92;2.10;;;10.30;99.90;;;;;;5054363;28;20041;-38
2023/11/13 00:26:45;;;;;;;2.85;2.00;;;10.30;99.90;;;;;;5054296;28;20657;-40
2023/11/13 00:29:15;;;;;;;3.33;2.10;;;10.30;99.90;;;;;;5054248;28;20029;-38
2023/11/13 00:31:41;;;;;;;3.22;1.90;;;10.30;99.90;;;;;;5054074;28;20051;-38
2023/11/13 00:34:07;;;;;;;2.38;2.03;;;10.30;99.90;;;;;;5054346;28;20029;-38
2023/11/13 00:36:32;;;;;;;2.97;2.38;;;10.30;99.90;;;;;;5054002;28;20355;-38
2023/11/13 00:38:58;;;;;;;2.80;2.00;;;10.30;99.90;;;;;;5053991;28;20041;-39
2023/11/13 00:41:23;;;;;;;2.88;1.90;;;10.30;99.90;;;;;;5053944;28;20061;-37
2023/11/13 00:43:49;;;;;;;3.35;2.00;;;10.30;99.90;;;;;;5053949;28;20417;-38
2023/11/13 00:46:15;;;;;;;3.15;2.20;;;10.30;99.90;;;;;;5053893;28;20021;-38
2023/11/13 00:48:40;;;;;;;3.47;2.10;;;10.30;99.90;;;;;;5054032;28;20071;-38
2023/11/13 00:51:08;;;;;;;3.17;2.45;;;10.30;99.90;;;;;;5053694;28;20017;-38
2023/11/13 00:53:37;;;;;;;2.30;1.90;;;10.30;99.90;;;;;;5053654;28;20490;-39
2023/11/13 00:56:04;;;;;;;2.50;2.03;;;10.30;99.90;;;;;;5053655;28;20032;-38
2023/11/13 00:58:35;;;;;;;3.00;2.00;;;10.30;99.90;;;;;;5053553;28;20033;-37
2023/11/13 01:01:08;;;;;;;2.60;1.90;;;10.30;99.90;;;;;;5053679;28;20036;-38
2023/11/13 01:03:34;;;;;;;2.10;1.83;;;10.30;99.90;;;;;;5053777;28;20025;-38
2023/11/13 01:06:00;;;;;;;2.20;1.83;;;10.30;99.90;;;;;;5053615;28;20614;-37
2023/11/13 01:08:26;;;;;;;2.35;1.95;;;10.30;99.90;;;;;;5053401;28;20082;-37
2023/11/13 01:10:52;;;;;;;4.50;2.00;;;10.30;99.90;;;;;;5053242;28;20032;-38
2023/11/13 01:13:21;;;;;;;1.90;1.65;;;10.30;99.90;;;;;;5053380;28;20069;-39
2023/11/13 01:15:57;;;;;;;2.92;2.00;;;10.30;99.90;;;;;;5053305;28;20478;-37
2023/11/13 01:18:23;;;;;;;3.15;2.10;;;10.30;99.90;;;;;;5053346;28;20036;-38
2023/11/13 01:20:49;;;;;;;2.38;1.98;;;10.30;99.90;;;;;;5053196;28;20028;-39
2023/11/13 01:23:15;;;;;;;2.40;1.70;;;10.30;99.90;;;;;;5053237;28;20390;-39
2023/11/13 01:25:41;;;;;;;2.80;2.05;;;10.30;99.90;;;;;;5053217;28;20029;-38
2023/11/13 01:28:07;;;;;;;5.47;2.00;;;10.30;99.90;;;;;;5051827;28;20031;-38
2023/11/13 01:30:33;;;;;;;2.15;1.65;;;10.30;99.90;;;;;;5053024;28;20031;-38
2023/11/13 01:32:59;;;;;;;2.70;1.90;;;10.30;99.90;;;;;;5052968;28;20394;-38
2023/11/13 01:35:24;;;;;;;3.13;2.20;;;10.30;99.90;;;;;;5052975;28;20096;-38
2023/11/13 01:37:51;;;;;;;2.53;1.88;;;10.30;99.90;;;;;;5053338;28;20021;-38
2023/11/13 01:40:16;;;;;;;3.20;2.10;;;10.30;99.90;;;;;;5052911;28;20100;-38
2023/11/13 01:42:42;;;;;;;2.45;1.80;;;10.30;99.90;;;;;;5052914;28;20129;-38
2023/11/13 01:45:08;;;;;;;2.17;1.63;;;10.30;99.90;;;;;;5052778;28;20032;-38
2023/11/13 01:47:35;;;;;;;2.50;2.03;;;10.30;99.90;;;;;;5052772;28;20079;-38
2023/11/13 01:50:02;;;;;;;2.97;1.63;;;10.30;99.90;;;;;;5052766;28;20389;-38
2023/11/13 01:52:29;;;;;;;2.63;1.75;;;10.30;99.90;;;;;;5052503;28;20021;-38
2023/11/13 01:54:55;;;;;;;2.78;1.80;;;10.30;99.90;;;;;;5052723;28;20447;-38
2023/11/13 01:57:21;;;;;;;2.00;1.42;;;10.30;99.90;;;;;;5052542;28;20025;-40
2023/11/13 01:59:48;;;;;;;2.70;1.52;;;10.30;99.90;;;;;;5052613;28;20017;-38
2023/11/13 02:02:14;;;;;;;2.25;1.60;;;10.30;99.90;;;;;;5053059;28;20036;-38
2023/11/13 02:04:40;;;;;;;2.40;1.80;;;10.30;99.90;;;;;;5052465;28;20040;-38
2023/11/13 02:07:05;;;;;;;1.77;1.60;;;10.30;99.90;;;;;;5051932;28;20473;-37
2023/11/13 02:09:31;;;;;;;2.08;1.63;;;10.30;99.90;;;;;;5052055;28;20103;-38
2023/11/13 02:11:57;;;;;;;2.67;1.60;;;10.30;99.90;;;;;;5052342;28;20428;-38
2023/11/13 02:14:24;;;;;;;3.17;1.33;;;10.30;99.90;;;;;;5052335;28;20025;-37
2023/11/13 02:16:49;;;;;;;2.45;1.60;;;10.30;99.90;;;;;;5052149;28;20024;-38
2023/11/13 02:19:18;;;;;;;2.40;1.40;;;10.30;99.90;;;;;;5052333;28;20044;-37
2023/11/13 02:21:44;;;;;;;2.65;1.45;;;10.30;99.90;;;;;;5051908;28;20025;-38
2023/11/13 02:24:12;;;;;;;1.90;1.40;;;10.30;99.90;;;;;;5052114;28;20774;-37
2023/11/13 02:26:38;;;;;;;2.47;1.60;;;10.30;99.90;;;;;;5051892;28;20501;-40
2023/11/13 02:29:03;;;;;;;2.95;1.60;;;10.30;99.90;;;;;;5051993;28;20033;-38
2023/11/13 02:31:29;;;;;;;2.13;1.55;;;10.30;99.90;;;;;;5051744;28;20025;-37
2023/11/13 02:33:55;;;;;;;1.95;1.48;;;10.30;99.90;;;;;;5051896;28;20024;-38
2023/11/13 02:36:21;;;;;;;1.40;1.10;;;10.30;99.90;;;;;;5051658;28;20028;-38
2023/11/13 02:38:47;;;;;;;1.65;1.33;;;10.30;99.90;;;;;;5051947;28;20390;-38
2023/11/13 02:41:13;;;;;;;2.35;1.42;;;10.30;99.90;;;;;;5051720;28;20041;-38
2023/11/13 02:43:39;;;;;;;1.60;1.27;;;10.30;99.90;;;;;;5051776;28;20021;-38
2023/11/13 02:46:05;;;;;;;2.03;1.50;;;10.30;99.90;;;;;;5051691;28;20044;-38
2023/11/13 02:48:32;;;;;;;1.60;1.20;;;10.30;99.90;;;;;;5051548;28;20407;-38
2023/11/13 02:50:57;;;;;;;2.28;1.50;;;10.30;99.90;;;;;;5051476;28;20119;-38
2023/11/13 02:53:23;;;;;;;2.78;1.35;;;10.30;99.90;;;;;;5051483;28;20521;-38
2023/11/13 02:55:51;;;;;;;2.47;1.40;;;10.30;99.90;;;;;;5051455;28;20071;-38
2023/11/13 02:58:17;;;;;;;2.13;1.30;;;10.30;99.90;;;;;;5051579;28;20407;-38
2023/11/13 03:00:43;;;;;;;1.50;1.20;;;10.30;99.90;;;;;;5051350;28;20029;-38
2023/11/13 03:03:08;;;;;;;1.80;1.23;;;10.30;99.90;;;;;;5051441;28;20500;-38
2023/11/13 03:05:34;;;;;;;2.40;1.20;;;10.30;99.90;;;;;;5051260;28;20029;-37
2023/11/13 03:07:59;;;;;;;1.77;1.30;;;10.30;99.90;;;;;;5051313;28;20029;-37
2023/11/13 03:10:25;;;;;;;2.13;1.30;;;10.30;99.90;;;;;;5051314;28;20040;-38
2023/11/13 03:12:51;;;;;;;1.70;1.30;;;10.30;99.90;;;;;;5051240;28;20588;-39
2023/11/13 03:15:17;;;;;;;2.22;1.20;;;10.30;99.90;;;;;;5051237;28;20393;-38
2023/11/13 03:17:42;;;;;;;1.35;1.05;;;10.30;99.90;;;;;;5051241;28;20104;-37
2023/11/13 03:20:09;;;;;;;1.70;1.17;;;10.30;99.90;;;;;;5050891;28;20040;-38
2023/11/13 03:22:34;;;;;;;1.67;0.90;;;10.30;99.90;;;;;;5051355;28;20032;-37
2023/11/13 03:25:01;;;;;;;2.28;1.02;;;10.30;99.90;;;;;;5051171;28;20044;-38
2023/11/13 03:27:26;;;;;;;1.83;1.00;;;10.30;99.90;;;;;;5051391;28;20025;-37
2023/11/13 03:29:53;;;;;;;1.75;1.30;;;10.30;99.90;;;;;;5051082;28;20390;-38
2023/11/13 03:32:19;;;;;;;1.20;0.80;;;10.30;99.90;;;;;;5050989;28;20025;-36
2023/11/13 03:34:44;;;;;;;1.10;1.00;;;10.30;99.90;;;;;;5050941;28;20103;-37
2023/11/13 03:37:10;;;;;;;1.60;1.20;;;10.30;99.90;;;;;;5050996;28;20420;-39
2023/11/13 03:39:36;;;;;;;1.45;0.93;;;10.30;99.90;;;;;;5051142;28;20471;-37
2023/11/13 03:42:02;;;;;;;1.60;1.00;;;10.30;99.90;;;;;;5050973;28;20029;-38
2023/11/13 03:44:28;;;;;;;2.15;0.95;;;10.30;99.90;;;;;;5051134;28;20028;-38
2023/11/13 03:46:54;;;;;;;1.35;0.90;;;10.30;99.90;;;;;;5050847;28;20032;-38
2023/11/13 03:49:19;;;;;;;1.38;0.95;;;10.30;99.90;;;;;;5050968;28;20062;-37
2023/11/13 03:51:45;;;;;;;1.70;1.00;;;10.30;99.90;;;;;;5050925;28;20494;-38
2023/11/13 03:54:10;;;;;;;1.38;1.10;;;10.30;99.90;;;;;;5050887;28;20060;-39
2023/11/13 03:56:36;;;;;;;1.95;1.20;;;10.30;99.90;;;;;;5050783;28;20028;-39
2023/11/13 03:59:02;;;;;;;1.10;0.90;;;10.30;99.90;;;;;;5050882;28;20017;-38
2023/11/13 04:01:27;;;;;;;1.13;0.88;;;10.30;99.90;;;;;;5050618;28;20414;-37
2023/11/13 04:03:53;;;;;;;1.00;0.80;;;10.30;99.90;;;;;;5050934;28;20048;-38
2023/11/13 04:06:19;;;;;;;1.40;1.10;;;10.30;99.90;;;;;;5050758;28;20036;-37
2023/11/13 04:08:44;;;;;;;1.90;0.93;;;10.30;99.90;;;;;;5050679;28;20492;-37
2023/11/13 04:11:10;;;;;;;2.03;0.90;;;10.30;99.90;;;;;;5050629;28;20488;-37
2023/11/13 04:13:36;;;;;;;1.40;0.90;;;10.30;99.90;;;;;;5050765;28;20040;-38
2023/11/13 04:16:02;;;;;;;1.38;0.98;;;10.30;99.90;;;;;;5050590;28;20025;-38
2023/11/13 04:18:29;;;;;;;1.73;0.95;;;10.30;99.90;;;;;;5050544;28;20430;-37
2023/11/13 04:20:57;;;;;;;1.77;0.88;;;10.30;99.90;;;;;;5050602;28;20092;-38
2023/11/13 04:23:24;;;;;;;1.20;1.00;;;10.30;99.90;;;;;;5050706;28;20028;-36
2023/11/13 04:25:51;;;;;;;1.75;0.98;;;10.30;99.90;;;;;;5050566;28;20553;-38
2023/11/13 04:28:19;;;;;;;1.00;0.73;;;10.30;99.90;;;;;;5051027;28;20040;-39
2023/11/13 04:30:46;;;;;;;1.30;1.00;;;10.30;99.90;;;;;;5050604;28;20532;-39
2023/11/13 04:33:12;;;;;;;1.30;0.75;;;10.30;99.90;;;;;;5054202;28;20029;-38
2023/11/13 04:35:38;;;;;;;1.60;0.85;;;10.30;99.90;;;;;;5054207;28;20070;-38
2023/11/13 04:38:04;;;;;;;1.25;0.90;;;10.30;99.90;;;;;;5054057;28;20029;-38
2023/11/13 04:40:30;;;;;;;2.25;0.80;;;10.30;99.90;;;;;;5054002;28;20025;-38
2023/11/13 04:42:58;;;;;;;1.60;1.00;;;10.30;99.90;;;;;;5054079;28;20116;-37
2023/11/13 04:45:23;;;;;;;1.23;0.82;;;10.30;99.90;;;;;;5053795;28;20490;-37
2023/11/13 04:47:49;;;;;;;1.10;0.80;;;10.30;99.90;;;;;;5053831;28;20071;-37
2023/11/13 04:50:15;;;;;;;1.77;0.80;;;10.30;99.90;;;;;;5053756;28;20061;-38
2023/11/13 04:52:41;;;;;;;1.77;0.80;;;10.30;99.90;;;;;;5052490;28;20029;-38
2023/11/13 04:55:09;;;;;;;1.80;0.70;;;10.30;99.90;;;;;;5052332;28;20021;-39
2023/11/13 04:57:35;;;;;;;1.50;0.80;;;10.30;99.90;;;;;;5053766;28;20025;-37
2023/11/13 05:00:01;;;;;;;1.63;0.85;;;10.30;99.90;;;;;;5053432;28;20063;-38
2023/11/13 05:02:27;;;;;;;1.27;0.80;;;10.30;99.90;;;;;;5053745;28;20029;-38
2023/11/13 05:04:53;;;;;;;1.08;0.70;;;10.30;99.90;;;;;;5053645;28;20033;-37
2023/11/13 05:07:19;;;;;;;1.20;0.70;;;10.30;99.90;;;;;;5053516;28;20501;-37
2023/11/13 05:09:44;;;;;;;1.00;0.60;;;10.30;99.90;;;;;;5053462;28;20032;-38
2023/11/13 05:12:10;;;;;;;2.90;0.80;;;10.30;99.90;;;;;;5053396;28;20477;-37
2023/11/13 05:14:40;;;;;;;1.10;0.80;;;10.30;99.90;;;;;;5053266;28;20025;-37
2023/11/13 05:17:05;;;;;;;1.65;0.90;;;10.30;99.90;;;;;;5053378;28;20021;-37
2023/11/13 05:19:31;;;;;;;2.80;0.82;;;10.30;99.90;;;;;;5053275;28;20070;-38
2023/11/13 05:21:56;;;;;;;1.90;0.90;;;10.30;99.90;;;;;;5053223;28;20029;-38
2023/11/13 05:24:22;;;;;;;1.65;0.90;;;10.30;99.90;;;;;;5053262;28;20108;-39
2023/11/13 05:26:51;;;;;;;1.55;0.80;;;10.30;99.90;;;;;;5053128;28;20039;-37
2023/11/13 05:29:16;;;;;;;1.20;0.70;;;10.40;99.90;;;;;;5053093;28;20025;-39
2023/11/13 05:31:42;;;;;;;0.77;0.55;;;10.30;99.90;;;;;;5052954;28;20147;-37
2023/11/13 05:34:08;;;;;;;2.25;0.95;;;10.40;99.90;;;;;;5053028;28;20021;-37
2023/11/13 05:36:33;;;;;;;1.75;1.10;;;10.40;99.90;;;;;;5052931;28;20510;-37
2023/11/13 05:38:59;;;;;;;1.55;0.90;;;10.40;99.90;;;;;;5053054;28;20025;-38
2023/11/13 05:41:25;;;;;;;1.35;0.70;;;10.30;99.90;;;;;;5052901;28;20056;-37
2023/11/13 05:43:54;;;;;;;2.03;0.90;;;10.40;99.90;;;;;;5052753;28;20036;-37
2023/11/13 05:46:20;;;;;;;15.80;2.50;;;10.40;99.90;;;;;;5053090;28;20029;-38
2023/11/13 05:48:46;;;;;;;18.30;3.10;;;10.40;99.90;;;;;;5053080;28;20056;-38
2023/11/13 05:51:14;;;;;;;12.43;2.40;;;10.50;99.90;;;;;;5052987;28;20031;-38
2023/11/13 05:53:40;;;;;;;14.48;3.47;;;10.50;99.90;;;;;;5051598;28;20108;-39
2023/11/13 05:56:06;;;;;;;13.10;2.83;;;10.50;99.90;;;;;;5052510;28;20485;-39
2023/11/13 05:58:32;;;;;;;17.77;3.22;;;10.50;99.90;;;;;;5051701;28;20493;-38
2023/11/13 06:00:57;;;;;;;14.38;3.08;;;10.40;99.90;;;;;;5052524;28;20425;-38
2023/11/13 06:03:23;;;;;;;12.65;2.90;;;10.50;99.90;;;;;;5052618;28;20025;-38
2023/11/13 06:05:49;;;;;;;12.23;2.45;;;10.40;99.90;;;;;;5052700;28;20033;-38
2023/11/13 06:08:15;;;;;;;17.52;3.20;;;10.40;99.90;;;;;;5052936;28;20462;-38
2023/11/13 06:10:41;;;;;;;17.52;3.03;;;10.40;99.90;;;;;;5052300;28;20067;-38
2023/11/13 06:13:06;;;;;;;14.10;3.13;;;10.40;99.90;;;;;;5052452;28;20029;-38
2023/11/13 06:15:32;;;;;;;7.30;2.13;;;10.40;99.90;;;;;;5052337;28;20075;-38
2023/11/13 06:17:57;;;;;;;8.98;2.40;;;10.40;99.90;;;;;;5052404;28;20025;-39
2023/11/13 06:20:23;;;;;;;12.57;2.97;;;10.40;99.90;;;;;;5052636;28;20025;-38
2023/11/13 06:22:49;;;;;;;13.80;2.67;;;10.40;99.90;;;;;;5052443;28;20451;-39
2023/11/13 06:25:15;;;;;;;14.95;2.88;;;10.40;99.90;;;;;;5052121;28;20021;-39
2023/11/13 06:27:41;;;;;;;11.68;2.75;;;10.40;99.90;;;;;;5052217;28;20120;-38
2023/11/13 06:30:12;;;;;;;11.23;2.38;;;10.40;99.90;;;;;;5052394;28;20028;-38
2023/11/13 06:32:37;;;;;;;12.98;2.28;;;10.40;99.90;;;;;;5052454;28;20417;-38
2023/11/13 06:35:03;;;;;;;10.07;2.38;;;10.40;99.90;;;;;;5051988;28;20101;-38
2023/11/13 06:37:29;;;;;;;10.95;2.22;;;10.40;99.90;;;;;;5052079;28;20033;-38
2023/11/13 06:39:55;;;;;;;8.45;2.45;;;10.40;99.90;;;;;;5051794;28;20023;-39
2023/11/13 06:42:20;;;;;;;9.77;2.60;;;10.40;99.90;;;;;;5052443;28;20025;-38
2023/11/13 06:44:46;;;;;;;9.18;2.38;;;10.40;99.90;;;;;;5051992;28;20036;-38
2023/11/13 06:47:12;;;;;;;9.57;2.22;;;10.40;99.90;;;;;;5052038;28;20021;-38
2023/11/13 06:49:38;;;;;;;12.15;2.60;;;10.40;99.90;;;;;;5051976;28;20025;-39
2023/11/13 06:52:08;;;;;;;7.38;2.30;;;10.40;99.90;;;;;;5051594;28;20029;-39
2023/11/13 06:54:34;;;;;;;13.55;2.42;;;10.40;99.90;;;;;;5051301;28;20017;-38
2023/11/13 06:57:00;;;;;;;8.50;2.35;;;10.40;99.90;;;;;;5051596;28;20029;-39
2023/11/13 06:59:25;;;;;;;9.13;2.17;;;10.40;99.90;;;;;;5051688;28;20099;-39
2023/11/13 07:01:52;;;;;;;11.05;1.98;;;10.40;99.90;;;;;;5051634;28;20028;-38
2023/11/13 07:04:18;;;;;;;10.55;2.75;;;10.40;99.90;;;;;;5051462;28;20474;-40
2023/11/13 07:06:44;;;;;;;9.27;2.35;;;10.40;99.90;;;;;;5051297;28;20083;-39
2023/11/13 07:09:11;;;;;;;9.40;2.30;;;10.40;99.90;;;;;;5051311;28;20045;-38
2023/11/13 07:11:44;;;;;;;7.75;2.30;;;10.40;99.90;;;;;;5051324;28;20048;-39
2023/11/13 07:14:10;;;;;;;8.98;2.72;;;10.40;99.90;;;;;;5051326;28;20025;-39
2023/11/13 07:16:36;;;;;;;9.98;2.30;;;10.40;99.90;;;;;;5051120;28;20033;-39
2023/11/13 07:19:03;;;;;;;6.63;2.00;;;10.40;99.90;;;;;;5051287;28;20052;-39
2023/11/13 07:21:30;;;;;;;7.78;1.83;;;10.40;99.90;;;;;;5049869;28;20031;-38
2023/11/13 07:23:59;;;;;;;4.85;1.55;;;10.40;99.90;;;;;;5051325;28;20025;-39
2023/11/13 07:26:28;;;;;;;9.75;2.30;;;10.40;99.90;;;;;;5051116;28;20039;-40
2023/11/13 07:28:55;;;;;;;6.75;2.00;;;10.40;99.90;;;;;;5051179;28;20107;-39
2023/11/13 07:31:21;;;;;;;7.13;2.03;;;10.40;99.90;;;;;;5051480;28;20403;-39
2023/11/13 07:33:49;;;;;;;6.03;1.70;;;10.40;99.90;;;;;;5051047;28;20037;-39
2023/11/13 07:36:15;;;;;;;8.15;2.30;;;10.40;99.90;;;;;;5050872;28;20052;-40
2023/11/13 07:38:43;;;;;;;8.75;2.28;;;10.40;99.90;;;;;;5051019;28;20021;-40
2023/11/13 07:41:11;;;;;;;6.85;1.70;;;10.40;99.90;;;;;;5051211;28;20029;-40
2023/11/13 07:43:44;;;;;;;8.70;2.28;;;10.40;99.90;;;;;;5051379;28;20017;-39
2023/11/13 07:46:11;;;;;;;7.22;1.92;;;10.40;99.90;;;;;;5050901;28;20056;-38
2023/11/13 07:48:38;;;;;;;7.22;2.00;;;10.40;99.90;;;;;;5050932;28;20474;-39
2023/11/13 07:51:05;;;;;;;5.57;1.77;;;10.40;99.90;;;;;;5051245;28;20135;-39
2023/11/13 07:53:33;;;;;;;8.10;1.83;;;10.40;99.90;;;;;;5050960;28;20035;-40
2023/11/13 07:55:59;;;;;;;11.90;3.30;;;10.40;99.90;;;;;;5050891;28;20029;-39
2023/11/13 07:58:25;;;;;;;13.05;2.88;;;10.40;99.90;;;;;;5050814;28;20021;-37
2023/11/13 08:00:53;;;;;;;10.25;2.83;;;10.10;99.90;;;;;;5072275;22;20044;-42
2023/11/13 08:03:22;;;;;;;8.13;2.25;;;10.10;99.90;;;;;;5051947;28;20029;-43
2023/11/13 08:05:48;;;;;;;7.13;2.35;;;10.20;99.90;;;;;;5051841;28;20502;-42
2023/11/13 08:08:16;;;;;;;7.70;1.95;;;10.20;99.90;;;;;;5054651;28;20025;-43
2023/11/13 08:10:43;;;;;;;8.88;1.80;;;10.20;99.90;;;;;;5054545;28;20032;-42
2023/11/13 08:13:08;;;;;;;8.80;1.80;;;10.20;99.90;;;;;;5054470;28;20033;-43
2023/11/13 08:15:34;;;;;;;11.40;2.55;;;10.20;99.90;;;;;;5054617;28;20035;-42
2023/11/13 08:18:00;;;;;;;8.25;1.88;;;10.20;99.90;;;;;;5054470;28;20025;-42
2023/11/13 08:20:27;;;;;;;9.45;1.88;;;10.20;99.90;;;;;;5054379;28;20420;-43
2023/11/13 08:22:56;;;;;;;8.57;2.03;;;10.20;99.90;;;;;;5054503;28;20025;-42
2023/11/13 08:25:25;;;;;;;9.63;2.13;;;10.20;99.90;;;;;;5054230;28;20171;-43
2023/11/13 08:27:51;;;;;;;7.07;1.80;;;10.10;99.90;;;;;;5054365;28;20178;-42
2023/11/13 08:30:22;;;;;;;5.45;1.42;;;10.10;99.90;;;;;;5054431;28;20450;-42
2023/11/13 08:32:49;;;;;;;6.47;1.70;;;10.20;99.90;;;;;;5054226;28;20029;-42
2023/11/13 08:35:15;;;;;;;8.48;1.80;;;10.10;99.90;;;;;;5054181;28;20381;-42
2023/11/13 08:37:47;;;;;;;8.57;1.77;;;10.10;99.90;;;;;;5054090;28;20025;-42
2023/11/13 08:40:14;;;;;;;12.05;2.08;;;10.10;99.90;;;;;;5069306;28;20024;-42
2023/11/13 08:42:43;;;;;;;7.22;1.90;;;10.00;99.90;;;;;;5054032;28;20028;-41
2023/11/13 08:45:13;;;;;;;9.50;2.22;;;10.00;99.90;;;;;;5054135;28;20028;-42
2023/11/13 08:47:42;;;;;;;5.95;1.90;;;10.00;99.90;;;;;;5053924;28;20037;-43
2023/11/13 08:50:11;;;;;;;11.48;1.60;;;10.10;99.90;;;;;;5053862;28;20498;-42
2023/11/13 08:52:41;;;;;;;8.60;1.98;;;10.10;99.90;;;;;;5053682;28;20098;-43
2023/11/13 08:55:13;;;;;;;8.02;1.98;;;10.10;99.90;;;;;;5053743;28;20104;-42
2023/11/13 08:57:42;;;;;;;5.57;1.65;;;10.10;99.90;;;;;;5052442;28;20017;-42
2023/11/13 09:00:18;;;;;;;7.20;1.73;;;10.20;99.90;;;;;;5052920;28;20032;-43
2023/11/13 09:02:48;;;;;;;6.00;1.70;;;10.20;99.90;;;;;;5054960;28;20061;-41
2023/11/13 09:05:14;;;;;;;6.65;1.70;;;10.20;99.90;;;;;;5053320;28;20052;-42
2023/11/13 09:07:41;;;;;;;7.13;1.75;;;10.20;99.90;;;;;;5054430;28;20025;-42
2023/11/13 09:10:09;;;;;;;7.07;1.65;;;10.30;99.90;;;;;;5054809;28;20428;-42
2023/11/13 09:12:37;;;;;;;7.13;1.75;;;10.30;99.90;;;;;;5055439;28;20025;-42
2023/11/13 09:15:13;;;;;;;5.05;1.63;;;10.30;99.90;;;;;;5053393;28;20025;-43
2023/11/13 09:17:46;;;;;;;4.13;1.48;;;10.40;99.90;;;;;;5053495;28;20485;-42
2023/11/13 09:20:15;;;;;;;6.55;1.55;;;10.40;99.90;;;;;;5053546;28;20542;-41
2023/11/13 09:22:44;;;;;;;5.90;1.73;;;10.40;99.90;;;;;;5054118;28;20028;-43
2023/11/13 09:25:14;;;;;;;4.78;1.67;;;10.40;99.90;;;;;;5054373;28;20033;-42
2023/11/13 09:27:46;;;;;;;6.65;1.60;;;10.40;99.90;;;;;;5051828;28;20032;-42
2023/11/13 09:30:15;;;;;;;5.10;1.58;;;10.50;99.90;;;;;;5053752;28;20033;-42
2023/11/13 09:32:44;;;;;;;7.75;1.58;;;10.50;99.90;;;;;;5053528;28;20482;-42
2023/11/13 09:35:18;;;;;;;6.18;1.65;;;10.50;99.90;;;;;;5052950;28;20059;-43
2023/11/13 09:37:51;;;;;;;5.38;1.52;;;10.50;99.90;;;;;;5053024;28;20059;-42
2023/11/13 09:40:21;;;;;;;4.38;1.35;;;10.50;99.90;;;;;;5052900;28;20040;-44
2023/11/13 09:42:55;;;;;;;4.28;1.40;;;10.50;99.90;;;;;;5052870;28;20029;-42
2023/11/13 09:45:22;;;;;;;4.68;1.30;;;10.50;99.90;;;;;;5052840;28;20025;-42
2023/11/13 09:47:54;;;;;;;4.72;1.27;;;10.50;99.90;;;;;;5053650;28;20074;-42
2023/11/13 09:50:20;;;;;;;3.22;1.20;;;10.50;99.90;;;;;;5052980;28;20435;-43
2023/11/13 09:52:57;;;;;;;4.90;1.67;;;10.50;99.90;;;;;;5053844;28;20487;-43
2023/11/13 09:55:24;;;;;;;3.97;1.27;;;10.50;99.90;;;;;;5052660;28;20104;-42
2023/11/13 09:57:54;;;;;;;3.15;1.30;;;10.50;99.90;;;;;;5052498;28;20063;-44
2023/11/13 10:00:23;;;;;;;2.15;0.88;;;10.50;99.90;;;;;;5053677;28;20024;-41
2023/11/13 10:02:53;;;;;;;3.60;1.20;;;10.50;99.90;;;;;;5053551;28;20107;-42
2023/11/13 10:05:26;;;;;;;4.47;1.38;;;10.50;99.90;;;;;;5053480;28;20067;-41
2023/11/13 10:07:52;;;;;;;4.82;1.40;;;10.50;99.90;;;;;;5052581;28;20362;-42
2023/11/13 10:10:22;;;;;;;4.45;1.40;;;10.50;99.90;;;;;;5053493;28;20033;-44
2023/11/13 10:13:04;;;;;;;3.28;1.02;;;10.60;99.90;;;;;;5053838;28;20037;-43
2023/11/13 10:15:31;;;;;;;3.97;1.33;;;10.60;99.90;;;;;;5052795;28;20025;-42
2023/11/13 10:17:58;;;;;;;4.00;1.58;;;10.50;99.90;;;;;;5053118;28;20485;-42
2023/11/13 10:20:26;;;;;;;3.50;1.35;;;10.60;99.90;;;;;;5052167;28;20036;-42
2023/11/13 10:23:05;;;;;;;3.33;1.20;;;10.60;99.90;;;;;;5052827;28;20397;-42
2023/11/13 10:25:41;;;;;;;3.30;1.10;;;10.60;99.90;;;;;;5053193;28;20315;-42
2023/11/13 10:28:10;;;;;;;6.68;1.27;;;10.60;99.90;;;;;;5053441;28;20017;-42
2023/11/13 10:30:59;;;;;;;2.50;0.95;;;10.60;99.90;;;;;;5052924;28;20029;-42
2023/11/13 10:33:26;;;;;;;4.80;1.08;;;10.60;99.90;;;;;;5051917;28;20103;-42
2023/11/13 10:35:53;;;;;;;5.18;1.33;;;10.60;99.90;;;;;;5052172;28;20542;-42
2023/11/13 10:38:22;;;;;;;2.55;0.90;;;10.60;99.90;;;;;;5052258;28;20032;-41
2023/11/13 10:40:58;;;;;;;6.80;1.20;;;10.60;99.90;;;;;;5067850;28;20100;-43
2023/11/13 10:43:27;;;;;;;3.38;1.33;;;10.60;99.90;;;;;;5052504;28;20029;-42
2023/11/13 10:45:53;;;;;;;3.15;1.10;;;10.60;99.90;;;;;;5053265;28;20025;-43
2023/11/13 10:48:40;;;;;;;1.83;0.80;;;10.60;99.90;;;;;;5051701;28;20371;-42
2023/11/13 10:51:06;;;;;;;4.35;1.10;;;10.60;99.90;;;;;;5053373;28;20036;-42
2023/11/13 10:53:38;;;;;;;2.42;0.85;;;10.60;99.90;;;;;;5052508;28;20053;-43
2023/11/13 10:56:05;;;;;;;2.70;1.00;;;10.60;99.90;;;;;;5052180;28;20021;-42
2023/11/13 10:58:32;;;;;;;4.38;1.13;;;10.60;99.90;;;;;;5052535;28;20147;-42
2023/11/13 11:01:01;;;;;;;3.90;1.23;;;10.70;99.90;;;;;;5052148;28;20048;-43
2023/11/13 11:03:33;;;;;;;3.63;1.17;;;10.60;99.90;;;;;;5067774;28;20033;-42
2023/11/13 11:06:11;;;;;;;4.32;1.20;;;10.60;99.90;;;;;;5052507;28;20082;-43
2023/11/13 11:08:38;;;;;;;2.95;1.05;;;10.70;99.90;;;;;;5052364;28;20470;-42
2023/11/13 11:11:05;;;;;;;2.92;1.02;;;10.70;99.90;;;;;;5051458;28;20126;-41
2023/11/13 11:13:34;;;;;;;4.53;1.23;;;10.70;99.90;;;;;;5053145;28;20112;-43
2023/11/13 11:16:00;;;;;;;5.13;1.20;;;10.70;99.90;;;;;;5052631;28;20021;-43
2023/11/13 11:18:49;;;;;;;2.70;1.10;;;10.70;99.90;;;;;;5052533;28;20481;-41
2023/11/13 11:21:35;;;;;;;2.90;1.15;;;10.70;99.90;;;;;;5051694;28;20111;-42
2023/11/13 11:24:20;;;;;;;2.83;1.00;;;10.70;99.90;;;;;;5052893;28;20049;-42
2023/11/13 11:27:00;;;;;;;3.70;1.20;;;10.70;99.90;;;;;;5051542;28;20116;-43
2023/11/13 11:29:43;;;;;;;5.45;1.30;;;10.70;99.90;;;;;;5047012;28;20033;-44
2023/11/13 11:32:15;;;;;;;2.70;0.95;;;10.70;99.90;;;;;;5052360;28;20029;-42
2023/11/13 11:34:43;;;;;;;5.35;1.55;;;10.80;99.90;;;;;;5051444;28;20068;-42
2023/11/13 11:37:14;;;;;;;3.28;1.17;;;10.90;99.90;;;;;;5050876;28;20418;-42
2023/11/13 11:39:50;;;;;;;7.28;1.60;;;10.90;99.90;;;;;;5052056;28;20013;-42
2023/11/13 11:42:20;;;;;;;6.50;1.25;;;10.90;99.90;;;;;;5055151;28;20040;-42
2023/11/13 11:45:17;;;;;;;3.67;1.27;;;11.00;99.90;;;;;;5056004;28;20158;-43
2023/11/13 11:47:53;;;;;;;5.35;1.50;;;11.00;99.90;;;;;;5055135;28;20687;-41
2023/11/13 11:50:19;;;;;;;4.70;1.38;;;11.00;99.90;;;;;;5055638;28;20017;-42
2023/11/13 11:52:57;;;;;;;3.55;1.08;;;11.00;99.90;;;;;;5056533;28;20021;-41
2023/11/13 11:55:25;;;;;;;1.73;0.80;;;11.00;99.90;;;;;;5056868;28;20090;-42
2023/11/13 11:57:52;;;;;;;4.90;1.45;;;11.00;99.90;;;;;;5055994;28;20398;-42
2023/11/13 12:00:20;;;;;;;2.13;1.00;;;11.00;99.90;;;;;;5055306;28;20025;-42
2023/11/13 12:02:53;;;;;;;3.97;1.20;;;11.00;99.90;;;;;;5055112;28;20055;-43
2023/11/13 12:05:19;;;;;;;2.88;1.20;;;11.00;99.90;;;;;;5055391;28;20032;-41
2023/11/13 12:07:50;;;;;;;3.28;0.95;;;11.00;99.90;;;;;;5054703;28;20029;-42
2023/11/13 12:10:20;;;;;;;4.68;1.33;;;11.00;99.90;;;;;;5052272;28;20041;-42
2023/11/13 12:12:47;;;;;;;1.67;0.90;;;11.00;99.90;;;;;;5074569;28;20028;-42
2023/11/13 12:15:14;;;;;;;3.50;1.00;;;11.10;99.90;;;;;;5075750;28;20078;-42
2023/11/13 12:17:40;;;;;;;2.50;0.90;;;11.10;99.90;;;;;;5074781;28;20555;-42
2023/11/13 12:20:11;;;;;;;3.85;1.13;;;11.10;99.90;;;;;;5074484;28;20070;-42
2023/11/13 12:22:38;;;;;;;2.33;1.02;;;11.10;99.90;;;;;;5074441;28;20032;-42
2023/11/13 12:25:12;;;;;;;3.70;1.00;;;11.10;99.90;;;;;;5074204;28;20466;-42
2023/11/13 12:27:39;;;;;;;2.85;1.17;;;11.10;99.90;;;;;;5075605;28;20056;-41
2023/11/13 12:30:16;;;;;;;3.67;1.20;;;11.10;99.90;;;;;;5074990;28;20078;-42
2023/11/13 12:32:51;;;;;;;3.15;1.30;;;11.10;99.90;;;;;;5074461;28;20028;-42
2023/11/13 12:35:17;;;;;;;2.25;0.95;;;11.10;99.90;;;;;;5074937;28;20393;-42
2023/11/13 12:37:45;;;;;;;3.08;1.02;;;11.10;99.90;;;;;;5074486;28;20078;-42
2023/11/13 12:40:13;;;;;;;2.05;0.80;;;11.10;99.90;;;;;;5074355;28;20468;-42
2023/11/13 12:42:39;;;;;;;2.15;0.90;;;11.10;99.90;;;;;;5075407;28;20017;-42
2023/11/13 12:45:15;;;;;;;1.60;0.80;;;11.10;99.90;;;;;;5075099;28;20024;-43
2023/11/13 12:47:49;;;;;;;3.55;0.90;;;11.10;99.90;;;;;;5074183;28;20111;-42